createdAt,value
2019-06-10T00:00:44.237Z,7.40
2019-06-10T00:11:27.871Z,8.10
2019-06-10T00:22:11.518Z,5.50
2019-06-10T00:32:52.930Z,8.70
2019-06-10T00:43:37.136Z,8.30
2019-06-10T00:54:21.917Z,8.30
2019-06-10T01:05:05.056Z,8.20
2019-06-10T01:15:46.839Z,8.00
2019-06-10T01:26:30.826Z,7.10
2019-06-10T01:37:11.762Z,6.60
2019-06-10T01:47:53.882Z,7.00
2019-06-10T01:58:40.543Z,7.70
2019-06-10T02:09:23.173Z,7.90
2019-06-10T02:20:05.084Z,8.30
2019-06-10T02:30:55.422Z,8.60
2019-06-10T02:41:36.530Z,10.00
2019-06-10T02:52:16.038Z,8.50
2019-06-10T03:02:56.862Z,6.80
2019-06-10T03:13:35.865Z,6.00
2019-06-10T03:24:17.047Z,7.70
2019-06-10T03:35:05.012Z,10.00
2019-06-10T03:45:44.315Z,8.30
2019-06-10T03:56:23.183Z,6.30
2019-06-10T04:07:03.989Z,8.60
2019-06-10T04:17:45.974Z,8.20
2019-06-10T04:28:29.277Z,7.30
2019-06-10T04:39:08.303Z,8.00
2019-06-10T04:49:52.272Z,6.80
2019-06-10T05:00:34.990Z,7.80
2019-06-10T05:11:21.731Z,7.80
2019-06-10T05:22:04.065Z,9.20
2019-06-10T05:32:48.089Z,11.10
2019-06-10T05:43:34.249Z,8.60
2019-06-10T05:54:14.916Z,10.00
2019-06-10T06:04:59.087Z,10.20
2019-06-10T06:15:39.401Z,8.90
2019-06-10T06:26:24.174Z,6.50
2019-06-10T06:37:06.152Z,6.80
2019-06-10T06:47:52.759Z,7.60
2019-06-10T06:58:36.906Z,9.10
2019-06-10T07:09:19.142Z,8.00
2019-06-10T07:20:03.242Z,6.50
2019-06-10T07:30:41.542Z,7.40
2019-06-10T07:41:23.167Z,6.90
2019-06-10T07:52:15.576Z,8.10
2019-06-10T08:02:52.879Z,9.00
2019-06-10T08:13:35.280Z,6.70
2019-06-10T08:24:15.334Z,6.10
2019-06-10T08:34:53.326Z,9.60
2019-06-10T08:45:38.896Z,5.90
2019-06-10T08:56:24.571Z,6.70
2019-06-10T09:07:09.299Z,7.90
2019-06-10T09:17:55.333Z,6.50
2019-06-10T09:28:32.820Z,8.50
2019-06-10T09:39:19.127Z,8.00
2019-06-10T09:49:57.314Z,5.90
2019-06-10T10:00:40.877Z,7.20
2019-06-10T10:11:12.358Z,7.10
2019-06-10T10:21:56.059Z,7.60
2019-06-10T10:32:33.447Z,6.30
2019-06-10T10:43:25.277Z,4.90
2019-06-10T10:54:25.506Z,6.00
2019-06-10T11:04:36.474Z,5.20
2019-06-10T11:15:18.304Z,6.40
2019-06-10T11:25:57.191Z,4.70
2019-06-10T11:36:42.378Z,6.50
2019-06-10T11:47:24.434Z,4.80
2019-06-10T11:58:08.490Z,3.50
2019-06-10T12:08:44.280Z,4.50
2019-06-10T12:19:29.483Z,6.90
2019-06-10T12:30:14.405Z,4.30
2019-06-10T12:40:58.942Z,4.40
2019-06-10T12:51:40.432Z,4.20
2019-06-10T13:02:31.227Z,3.90
2019-06-10T13:13:09.394Z,4.90
2019-06-10T13:23:54.804Z,3.80
2019-06-10T13:34:37.669Z,4.70
2019-06-10T13:45:19.440Z,5.70
2019-06-10T13:56:30.413Z,5.10
2019-06-10T14:06:50.688Z,4.90
2019-06-10T14:17:32.790Z,5.30
2019-06-10T14:28:32.255Z,4.20
2019-06-10T14:38:53.243Z,5.00
2019-06-10T14:49:35.736Z,5.60
2019-06-10T15:00:18.203Z,3.60
2019-06-10T15:11:01.457Z,6.00
2019-06-10T15:21:46.699Z,4.30
2019-06-10T15:32:34.536Z,5.40
2019-06-10T15:43:18.194Z,3.60
2019-06-10T15:54:02.607Z,4.30
2019-06-10T16:04:44.283Z,4.60
2019-06-10T16:15:26.795Z,4.60
2019-06-10T16:26:13.150Z,4.00
2019-06-10T16:36:54.392Z,4.00
2019-06-10T16:47:38.636Z,5.40
2019-06-10T16:58:21.188Z,7.30
2019-06-10T17:09:03.541Z,5.40
2019-06-10T17:19:46.502Z,4.10
2019-06-10T17:30:30.016Z,6.80
2019-06-10T17:41:13.560Z,6.70
2019-06-10T17:51:54.869Z,6.50
2019-06-10T18:02:39.314Z,6.40
2019-06-10T18:13:22.814Z,7.40
2019-06-10T18:24:08.284Z,5.80
2019-06-10T18:34:52.084Z,7.60
2019-06-10T18:45:38.502Z,5.20
2019-06-10T18:56:17.825Z,6.90
2019-06-10T19:06:49.619Z,5.60
2019-06-10T19:17:33.147Z,7.00
2019-06-10T19:28:12.777Z,5.30
2019-06-10T19:38:57.517Z,4.80
2019-06-10T19:49:43.640Z,7.00
2019-06-10T20:00:23.479Z,4.50
2019-06-10T20:11:08.152Z,4.20
2019-06-10T20:21:49.644Z,5.60
2019-06-10T20:32:34.415Z,5.20
2019-06-10T20:43:19.408Z,5.40
2019-06-10T20:54:04.626Z,5.90
2019-06-10T21:04:48.784Z,4.50
2019-06-10T21:15:33.326Z,5.10
2019-06-10T21:26:14.594Z,5.30
2019-06-10T21:36:58.484Z,5.60
2019-06-10T21:47:44.486Z,5.10
2019-06-10T21:58:27.855Z,5.20
2019-06-10T22:09:12.592Z,5.10
2019-06-10T22:19:56.832Z,4.90
2019-06-10T22:21:08.717Z,5.90
2019-06-10T22:31:53.267Z,7.00
2019-06-10T22:42:33.687Z,5.20
2019-06-10T22:53:19.825Z,4.50
2019-06-10T23:04:03.763Z,5.70
2019-06-10T23:14:46.944Z,4.40
2019-06-10T23:25:32.634Z,4.30
2019-06-10T23:36:15.646Z,2.90
2019-06-10T23:46:55.243Z,2.50
2019-06-10T23:57:37.860Z,2.60
